Time;durP1;ratioP1;P1;durP2;ratioP2;P2;SDS_P1;SDS_P2;PMS_P1;PMS_P2;Temp;Humidity;BMP_temperature;BMP_pressure;BME280_temperature;BME280_humidity;BME280_pressure;Samples;Min_cycle;Max_cycle;Signal;HPM_P1;HPM_P2
2023/01/16 00:00:04;;;;;;;7.13;2.83;;;4.60;99.90;;;;;;5110674;27;20061;-81
2023/01/16 00:02:30;;;;;;;6.07;3.00;;;4.60;99.90;;;;;;5093147;27;20047;-81
2023/01/16 00:04:56;;;;;;;8.93;3.22;;;5.30;99.90;;;;;;5094066;27;20053;-80
2023/01/16 00:07:21;;;;;;;5.82;2.63;;;4.60;99.90;;;;;;5076678;27;20039;-81
2023/01/16 00:09:47;;;;;;;7.18;2.60;;;5.70;99.90;;;;;;5060058;27;20264;-81
2023/01/16 00:12:13;;;;;;;6.93;2.40;;;6.00;99.90;;;;;;5093429;27;20047;-81
2023/01/16 00:14:38;;;;;;;5.35;2.00;;;4.70;99.90;;;;;;5093330;27;20074;-81
2023/01/16 00:17:04;;;;;;;8.13;2.55;;;4.70;99.90;;;;;;5076897;27;20149;-81
2023/01/16 00:19:30;;;;;;;5.38;2.03;;;4.70;99.90;;;;;;5076145;27;20039;-81
2023/01/16 00:21:55;;;;;;;6.45;2.80;;;4.80;99.90;;;;;;5077122;27;20043;-81
2023/01/16 00:24:24;;;;;;;10.80;3.60;;;4.70;99.90;;;;;;5093343;27;20123;-81
2023/01/16 00:26:53;;;;;;;4.95;2.70;;;4.50;99.90;;;;;;5110012;27;20066;-81
2023/01/16 00:29:19;;;;;;;10.02;3.03;;;4.80;99.90;;;;;;5092966;27;20047;-81
2023/01/16 00:31:44;;;;;;;11.68;3.10;;;4.80;99.90;;;;;;5075995;27;20046;-81
2023/01/16 00:34:10;;;;;;;9.23;3.25;;;4.80;99.90;;;;;;5093715;27;20043;-81
2023/01/16 00:36:38;;;;;;;6.50;3.35;;;5.00;99.90;;;;;;5109439;27;20070;-81
2023/01/16 00:39:04;;;;;;;6.75;3.40;;;4.80;99.90;;;;;;5093535;27;20054;-81
2023/01/16 00:41:29;;;;;;;5.65;2.65;;;4.80;99.90;;;;;;5076137;27;20042;-81
2023/01/16 00:43:58;;;;;;;6.95;3.20;;;4.80;99.90;;;;;;5092920;27;20078;-81
2023/01/16 00:46:25;;;;;;;5.00;2.95;;;4.80;99.90;;;;;;5076632;27;20086;-81
2023/01/16 00:48:51;;;;;;;5.35;2.60;;;6.00;99.90;;;;;;5109145;27;20039;-81
2023/01/16 00:51:16;;;;;;;5.13;2.75;;;4.80;99.90;;;;;;5092871;27;20039;-81
2023/01/16 00:53:42;;;;;;;7.88;2.78;;;4.70;99.90;;;;;;5093010;27;20588;-81
2023/01/16 00:56:08;;;;;;;6.57;2.40;;;4.70;99.90;;;;;;5109913;27;20054;-81
2023/01/16 00:58:34;;;;;;;4.82;1.92;;;4.60;99.90;;;;;;5075109;27;20458;-81
2023/01/16 01:01:00;;;;;;;5.47;2.58;;;4.60;99.90;;;;;;5059440;27;20047;-81
2023/01/16 01:03:28;;;;;;;7.50;2.33;;;4.50;99.90;;;;;;5076131;28;20062;-81
2023/01/16 01:05:54;;;;;;;8.45;2.28;;;4.60;99.90;;;;;;5108993;27;20091;-81
2023/01/16 01:08:19;;;;;;;6.43;2.42;;;4.50;99.90;;;;;;5109933;27;20130;-81
2023/01/16 01:10:45;;;;;;;6.22;2.53;;;5.40;99.90;;;;;;5092306;27;20038;-81
2023/01/16 01:13:11;;;;;;;5.95;2.05;;;4.50;99.90;;;;;;5092437;27;20046;-81
2023/01/16 01:15:37;;;;;;;7.18;2.08;;;5.40;99.90;;;;;;5075030;27;20057;-81
2023/01/16 01:18:04;;;;;;;9.60;2.42;;;4.50;99.90;;;;;;5109107;27;20126;-81
2023/01/16 01:20:29;;;;;;;7.20;2.25;;;4.40;99.90;;;;;;5091979;27;20517;-81
2023/01/16 01:22:55;;;;;;;8.15;2.15;;;5.60;99.90;;;;;;5074840;27;20104;-81
2023/01/16 01:25:21;;;;;;;6.68;1.92;;;4.40;99.90;;;;;;5109264;27;20047;-81
2023/01/16 01:27:46;;;;;;;6.55;1.98;;;4.40;99.90;;;;;;5075445;27;20085;-81
2023/01/16 01:30:12;;;;;;;6.05;1.98;;;4.40;99.90;;;;;;5076110;27;20043;-81
2023/01/16 01:32:38;;;;;;;12.75;2.40;;;4.40;99.90;;;;;;5075724;27;20058;-81
2023/01/16 01:35:06;;;;;;;6.80;1.88;;;4.40;99.90;;;;;;5076603;27;20043;-81
2023/01/16 01:37:32;;;;;;;4.13;1.50;;;4.40;99.90;;;;;;5077783;27;20042;-81
2023/01/16 01:39:57;;;;;;;6.90;1.70;;;4.30;99.90;;;;;;5108788;27;20073;-81
2023/01/16 01:45:14;;;;;;;3.30;1.45;;;4.40;99.90;;;;;;5094006;27;20310;-81
2023/01/16 01:47:44;;;;;;;7.07;1.75;;;4.40;99.90;;;;;;5109420;27;20092;-81
2023/01/16 01:50:23;;;;;;;2.90;1.75;;;4.40;99.90;;;;;;5108380;27;20046;-81
2023/01/16 01:52:50;;;;;;;5.28;2.15;;;4.30;99.90;;;;;;5091399;27;20051;-81
2023/01/16 01:55:16;;;;;;;3.15;1.48;;;4.30;99.90;;;;;;5108920;27;20047;-81
2023/01/16 01:57:49;;;;;;;5.72;1.35;;;4.30;99.90;;;;;;5090632;27;20561;-81
2023/01/16 02:00:19;;;;;;;3.83;1.60;;;4.30;99.90;;;;;;5088048;28;20185;-81
2023/01/16 02:03:00;;;;;;;8.02;1.65;;;4.20;99.90;;;;;;5088410;28;20115;-81
2023/01/16 02:05:44;;;;;;;6.05;1.83;;;4.20;99.90;;;;;;5105472;28;20368;-81
2023/01/16 02:08:14;;;;;;;2.95;1.17;;;4.20;99.90;;;;;;5105620;28;20459;-82
2023/01/16 02:10:45;;;;;;;7.65;1.42;;;5.20;99.90;;;;;;5104892;28;20051;-80
2023/01/16 02:13:11;;;;;;;4.93;1.38;;;4.20;99.90;;;;;;5105439;28;20379;-81
2023/01/16 02:19:14;;;;;;;7.18;1.52;;;4.20;99.90;;;;;;5070804;28;20047;-81
2023/01/16 02:21:21;;;;;;;7.30;2.33;;;4.20;99.90;;;;;;5105608;28;20403;-80
2023/01/16 02:24:08;;;;;;;7.50;1.55;;;4.20;99.90;;;;;;5104601;28;20044;-81
2023/01/16 02:26:56;;;;;;;6.30;1.70;;;4.20;99.90;;;;;;5104784;28;20048;-80
2023/01/16 02:29:42;;;;;;;5.53;1.30;;;4.20;99.90;;;;;;5105403;28;20380;-80
2023/01/16 02:32:10;;;;;;;9.27;2.00;;;4.20;99.90;;;;;;5087784;28;20109;-80
2023/01/16 02:34:42;;;;;;;4.03;1.00;;;4.20;99.90;;;;;;5088452;28;20043;-80
2023/01/16 02:37:24;;;;;;;8.02;1.40;;;4.20;99.90;;;;;;5105930;28;20477;-81
2023/01/16 02:40:10;;;;;;;4.80;1.50;;;4.20;99.90;;;;;;5104668;28;20400;-80
2023/01/16 02:42:57;;;;;;;11.57;2.67;;;4.20;99.90;;;;;;5087705;28;20086;-80
2023/01/16 02:45:47;;;;;;;6.05;1.77;;;4.30;99.90;;;;;;5104338;28;20505;-80
2023/01/16 02:48:44;;;;;;;10.55;2.17;;;4.20;99.90;;;;;;5104442;28;20130;-80
2023/01/16 02:51:28;;;;;;;9.38;1.92;;;4.20;99.90;;;;;;5088141;28;20044;-80
2023/01/16 02:54:16;;;;;;;;;;;5.30;99.90;;;;;;5087768;28;20047;-81
2023/01/16 02:57:14;;;;;;;4.32;1.15;;;4.30;99.90;;;;;;5096472;28;19959;-81
2023/01/16 02:59:41;;;;;;;2.45;1.35;;;4.30;99.90;;;;;;5084950;28;20048;-81
2023/01/16 03:02:08;;;;;;;7.10;1.55;;;4.30;99.90;;;;;;5087220;28;20086;-80
2023/01/16 03:04:40;;;;;;;9.18;2.10;;;4.30;99.90;;;;;;5087730;28;20052;-80
2023/01/16 03:07:30;;;;;;;6.15;2.47;;;4.30;99.90;;;;;;5087541;28;20319;-81
2023/01/16 03:10:43;;;;;;;4.38;1.77;;;4.30;99.90;;;;;;5106191;28;20127;-81
2023/01/16 03:13:39;;;;;;;5.20;2.13;;;4.30;99.90;;;;;;5091268;28;20043;-81
2023/01/16 03:16:31;;;;;;;6.20;1.67;;;4.30;99.90;;;;;;5091117;28;20047;-80
2023/01/16 03:19:18;;;;;;;6.82;1.63;;;4.30;99.90;;;;;;5108072;28;20079;-80
2023/01/16 03:22:00;;;;;;;2.72;1.30;;;4.30;99.90;;;;;;5108207;28;20040;-81
2023/01/16 03:24:25;;;;;;;6.05;2.13;;;4.30;99.90;;;;;;5091443;28;20047;-81
2023/01/16 03:26:58;;;;;;;6.30;1.83;;;4.30;99.90;;;;;;5107997;28;20113;-81
2023/01/16 03:29:53;;;;;;;;;;;4.20;99.90;;;;;;5108690;28;20048;-80
2023/01/16 03:32:19;;;;;;;2.78;1.20;;;4.20;99.90;;;;;;5077997;28;19927;-81
2023/01/16 03:35:20;;;;;;;9.32;3.05;;;4.20;99.90;;;;;;5108339;28;20048;-81
2023/01/16 03:37:56;;;;;;;3.97;1.83;;;4.20;99.90;;;;;;5052511;28;20096;-81
2023/01/16 03:40:27;;;;;;;4.35;1.85;;;4.20;99.90;;;;;;5107485;28;20110;-81
2023/01/16 03:43:01;;;;;;;3.15;1.42;;;5.20;99.90;;;;;;5107826;28;20031;-80
2023/01/16 03:45:52;;;;;;;5.95;1.88;;;4.30;99.90;;;;;;5107821;28;20048;-81
2023/01/16 03:48:38;;;;;;;11.30;2.00;;;4.30;99.90;;;;;;5107693;28;20044;-81
2023/01/16 03:51:06;;;;;;;7.10;1.65;;;4.30;99.90;;;;;;5108052;28;20043;-80
2023/01/16 03:53:40;;;;;;;6.60;1.33;;;4.20;99.90;;;;;;5090159;28;20035;-81
2023/01/16 03:56:26;;;;;;;10.82;2.05;;;4.20;99.90;;;;;;5090489;28;20039;-81
2023/01/16 03:58:53;;;;;;;8.93;1.80;;;4.10;99.90;;;;;;5109448;27;20135;-81
2023/01/16 04:01:30;;;;;;;7.00;2.03;;;4.10;99.90;;;;;;5093276;27;20500;-81
2023/01/16 04:04:05;;;;;;;5.35;1.55;;;4.10;99.90;;;;;;5110958;27;20039;-81
2023/01/16 04:07:08;;;;;;;5.70;3.08;;;4.10;99.90;;;;;;5110242;27;20604;-81
2023/01/16 04:09:47;;;;;;;4.45;1.48;;;4.10;99.90;;;;;;5093157;27;20112;-81
2023/01/16 04:12:17;;;;;;;8.13;2.22;;;4.10;99.90;;;;;;5112434;27;20647;-82
2023/01/16 04:14:45;;;;;;;5.05;1.60;;;4.10;99.90;;;;;;5110961;27;20095;-81
2023/01/16 04:17:11;;;;;;;5.85;1.80;;;4.20;99.90;;;;;;5110780;27;20046;-81
2023/01/16 04:19:37;;;;;;;8.23;2.53;;;4.20;99.90;;;;;;5093250;27;20402;-81
2023/01/16 04:22:07;;;;;;;5.43;2.30;;;4.20;99.90;;;;;;5076402;27;20043;-81
2023/01/16 04:24:35;;;;;;;7.60;2.15;;;4.80;99.90;;;;;;5093785;27;20134;-81
2023/01/16 04:27:01;;;;;;;5.38;2.80;;;5.20;99.90;;;;;;5109753;27;20530;-81
2023/01/16 04:29:26;;;;;;;8.55;2.70;;;4.20;99.90;;;;;;5076707;27;20615;-81
2023/01/16 04:31:52;;;;;;;4.80;2.35;;;4.30;99.90;;;;;;5109930;27;20047;-81
2023/01/16 04:34:18;;;;;;;4.72;2.38;;;4.30;99.90;;;;;;5093270;27;20139;-81
2023/01/16 04:36:43;;;;;;;5.70;2.15;;;4.40;99.90;;;;;;5109663;27;20062;-81
2023/01/16 04:39:09;;;;;;;3.42;2.35;;;4.30;99.90;;;;;;5110142;27;20129;-81
2023/01/16 04:41:35;;;;;;;6.70;2.22;;;4.30;99.90;;;;;;5110252;27;20043;-81
2023/01/16 04:44:05;;;;;;;5.75;2.35;;;4.30;99.90;;;;;;5076203;27;20442;-81
2023/01/16 04:46:31;;;;;;;9.32;2.50;;;4.30;99.90;;;;;;5092984;27;20043;-81
2023/01/16 04:48:57;;;;;;;3.72;2.58;;;4.30;99.90;;;;;;5109640;27;20034;-80
2023/01/16 04:51:23;;;;;;;9.45;2.78;;;4.30;99.90;;;;;;5110304;27;20535;-81
2023/01/16 04:53:49;;;;;;;5.55;2.65;;;5.00;99.90;;;;;;5075848;27;20103;-81
2023/01/16 04:56:15;;;;;;;5.25;2.50;;;5.40;99.90;;;;;;5092814;27;20126;-81
2023/01/16 04:58:41;;;;;;;7.18;3.03;;;4.40;99.90;;;;;;5092760;27;20126;-82
2023/01/16 05:01:06;;;;;;;5.80;3.17;;;4.30;99.90;;;;;;5058704;27;20550;-81
2023/01/16 05:03:32;;;;;;;7.38;2.90;;;5.00;99.90;;;;;;5092742;27;20051;-80
2023/01/16 05:05:58;;;;;;;7.78;2.97;;;5.60;99.90;;;;;;5109629;27;20039;-80
2023/01/16 05:08:27;;;;;;;8.50;3.47;;;4.40;99.90;;;;;;5075658;27;20512;-81
2023/01/16 05:10:53;;;;;;;8.25;3.15;;;5.30;99.90;;;;;;5091976;27;20039;-81
2023/01/16 05:13:20;;;;;;;12.93;3.65;;;4.40;99.90;;;;;;5092964;27;20169;-81
2023/01/16 05:15:46;;;;;;;7.75;3.25;;;5.00;99.90;;;;;;5092288;27;20043;-80
2023/01/16 05:18:12;;;;;;;7.35;3.45;;;4.90;99.90;;;;;;5108933;27;20046;-81
2023/01/16 05:20:39;;;;;;;5.07;2.90;;;4.50;99.90;;;;;;5093096;27;20129;-80
2023/01/16 05:23:05;;;;;;;4.47;3.20;;;4.40;99.90;;;;;;5108794;27;20235;-80
2023/01/16 05:25:31;;;;;;;6.80;3.47;;;4.30;99.90;;;;;;5109550;27;20042;-80
2023/01/16 05:27:57;;;;;;;12.35;4.25;;;5.00;99.90;;;;;;5127642;27;20064;-81
2023/01/16 05:30:23;;;;;;;10.00;3.97;;;4.30;99.90;;;;;;5109574;27;20039;-81
2023/01/16 05:32:49;;;;;;;6.45;3.78;;;4.30;99.90;;;;;;5108680;27;20054;-80
2023/01/16 05:35:15;;;;;;;9.48;3.92;;;5.00;99.90;;;;;;5091996;27;20047;-81
2023/01/16 05:37:42;;;;;;;9.90;4.10;;;4.10;99.90;;;;;;5075379;27;20058;-81
2023/01/16 05:40:09;;;;;;;12.32;4.30;;;4.10;99.90;;;;;;5108922;27;20432;-81
2023/01/16 05:42:34;;;;;;;9.80;4.75;;;4.00;99.90;;;;;;5075836;27;20126;-80
2023/01/16 05:45:00;;;;;;;8.05;4.97;;;4.30;99.90;;;;;;5108450;27;20508;-81
2023/01/16 05:47:26;;;;;;;7.35;4.30;;;3.90;99.90;;;;;;5075132;27;20027;-85
2023/01/16 05:49:52;;;;;;;12.95;5.15;;;3.90;99.90;;;;;;5108634;27;20504;-81
2023/01/16 05:52:18;;;;;;;9.90;4.72;;;3.80;99.90;;;;;;5091531;27;20125;-81
2023/01/16 05:54:43;;;;;;;11.90;5.10;;;4.70;99.90;;;;;;5075171;27;20039;-80
2023/01/16 05:57:09;;;;;;;10.48;4.47;;;3.70;99.90;;;;;;5074311;27;20466;-80
2023/01/16 05:59:35;;;;;;;8.35;5.15;;;3.70;99.90;;;;;;5091643;28;20051;-81
2023/01/16 06:02:00;;;;;;;11.23;5.13;;;4.70;99.90;;;;;;5074665;27;20189;-81
2023/01/16 06:04:26;;;;;;;11.13;5.88;;;3.70;99.90;;;;;;5074941;27;20047;-80
2023/01/16 06:06:52;;;;;;;10.32;5.38;;;3.70;99.90;;;;;;5074496;27;20130;-80
2023/01/16 06:09:17;;;;;;;15.50;5.97;;;3.60;99.90;;;;;;5074652;28;20039;-80
2023/01/16 06:11:43;;;;;;;13.15;6.65;;;3.60;99.90;;;;;;5074659;28;20084;-81
2023/01/16 06:14:09;;;;;;;15.10;6.78;;;3.60;99.90;;;;;;5074471;28;20184;-81
2023/01/16 06:16:35;;;;;;;13.90;6.32;;;4.20;99.90;;;;;;5091479;28;20039;-81
2023/01/16 06:19:01;;;;;;;12.45;6.10;;;3.50;99.90;;;;;;5074078;28;20047;-81
2023/01/16 06:21:27;;;;;;;13.48;6.50;;;3.60;99.90;;;;;;5108396;28;20039;-81
2023/01/16 06:23:53;;;;;;;10.25;6.28;;;5.00;99.90;;;;;;5091174;28;20113;-81
2023/01/16 06:26:19;;;;;;;18.33;7.07;;;3.60;99.90;;;;;;5074253;28;20092;-83
2023/01/16 06:28:46;;;;;;;11.25;6.65;;;3.60;99.90;;;;;;5075317;28;20042;-80
2023/01/16 06:31:12;;;;;;;16.80;7.93;;;4.10;99.90;;;;;;5074618;28;20043;-82
2023/01/16 06:33:38;;;;;;;21.30;9.63;;;4.30;99.90;;;;;;5091777;28;20409;-83
2023/01/16 06:36:04;;;;;;;17.55;9.50;;;4.90;99.90;;;;;;5090780;28;20050;-85
2023/01/16 06:38:30;;;;;;;18.30;8.82;;;3.50;99.90;;;;;;5075136;28;20032;-89
2023/01/16 06:40:56;;;;;;;15.18;8.95;;;4.70;99.90;;;;;;5074489;28;20078;-90
2023/01/16 06:43:26;;;;;;;17.13;10.00;;;3.60;99.90;;;;;;5074904;28;20042;-84
2023/01/16 06:45:53;;;;;;;20.13;11.70;;;3.60;99.90;;;;;;5094834;27;20035;-82
2023/01/16 06:48:19;;;;;;;23.45;11.73;;;4.10;99.90;;;;;;5078064;27;20047;-82
2023/01/16 06:50:45;;;;;;;17.90;9.57;;;5.10;99.90;;;;;;5112278;27;20406;-82
2023/01/16 06:53:13;;;;;;;16.95;8.90;;;3.70;99.90;;;;;;5130471;27;20047;-83
2023/01/16 06:55:41;;;;;;;13.60;8.50;;;4.90;99.90;;;;;;5094825;27;20051;-83
2023/01/16 06:58:08;;;;;;;14.50;8.68;;;3.80;99.90;;;;;;5111875;27;20450;-81
2023/01/16 07:00:34;;;;;;;12.82;8.10;;;3.70;99.90;;;;;;5111947;27;20051;-81
2023/01/16 07:03:01;;;;;;;13.27;7.78;;;3.70;99.90;;;;;;5111966;27;20055;-81
2023/01/16 07:05:29;;;;;;;13.48;7.15;;;3.60;99.90;;;;;;5094121;27;20043;-81
2023/01/16 07:07:55;;;;;;;15.27;7.72;;;3.60;99.90;;;;;;5111820;27;20050;-81
2023/01/16 07:10:21;;;;;;;13.85;7.40;;;3.60;99.90;;;;;;5111791;27;20119;-81
2023/01/16 07:12:48;;;;;;;11.88;6.70;;;3.60;99.90;;;;;;5095537;27;20126;-80
2023/01/16 07:23:34;;;;;;;18.55;6.43;;;4.10;99.90;;;;;;5111473;27;20078;-82
2023/01/16 07:26:03;;;;;;;16.05;7.28;;;3.50;99.90;;;;;;5077650;27;20043;-82
2023/01/16 07:28:29;;;;;;;8.90;6.78;;;4.20;99.90;;;;;;5094797;27;20047;-82
2023/01/16 07:30:57;;;;;;;14.00;7.30;;;3.50;99.90;;;;;;5094016;27;20447;-82
2023/01/16 07:33:23;;;;;;;11.23;5.97;;;3.40;99.90;;;;;;5111557;27;20051;-82
2023/01/16 07:35:49;;;;;;;12.43;6.40;;;4.60;99.90;;;;;;5093382;27;20047;-82
2023/01/16 07:38:18;;;;;;;10.02;6.32;;;3.40;99.90;;;;;;5111699;27;20039;-82
2023/01/16 07:40:44;;;;;;;11.32;5.93;;;3.40;99.90;;;;;;5110569;27;20054;-81
2023/01/16 07:43:09;;;;;;;15.73;5.72;;;3.40;99.90;;;;;;5094155;27;20421;-82
2023/01/16 07:45:35;;;;;;;14.48;6.75;;;4.40;99.90;;;;;;5077251;27;20139;-81
2023/01/16 07:48:01;;;;;;;11.73;5.82;;;3.40;99.90;;;;;;5076595;27;20496;-82
2023/01/16 07:50:28;;;;;;;10.82;6.10;;;4.10;99.90;;;;;;5094347;27;20051;-82
2023/01/16 07:52:53;;;;;;;10.95;5.95;;;3.50;99.90;;;;;;5093204;27;20131;-81
2023/01/16 07:55:19;;;;;;;13.02;6.63;;;3.30;99.90;;;;;;5093219;27;20121;-82
2023/01/16 07:57:45;;;;;;;13.57;5.72;;;3.40;99.90;;;;;;5093331;27;20043;-81
2023/01/16 08:00:12;;;;;;;9.75;5.80;;;3.30;99.90;;;;;;5093730;27;20039;-81
2023/01/16 08:02:39;;;;;;;8.60;5.78;;;3.30;99.90;;;;;;5110641;27;20126;-81
2023/01/16 08:05:05;;;;;;;13.65;5.53;;;3.30;99.90;;;;;;5060146;27;20051;-81
2023/01/16 08:07:31;;;;;;;14.73;5.53;;;3.40;99.90;;;;;;5110905;27;20043;-82
2023/01/16 08:09:57;;;;;;;17.65;6.22;;;3.40;99.90;;;;;;5093174;27;20409;-82
2023/01/16 08:12:23;;;;;;;9.90;5.00;;;3.40;99.90;;;;;;5093689;27;20625;-82
2023/01/16 08:14:48;;;;;;;13.60;5.72;;;3.80;99.90;;;;;;5109978;27;20524;-82
2023/01/16 08:17:15;;;;;;;7.40;5.07;;;4.20;99.90;;;;;;5093466;27;20043;-83
2023/01/16 08:19:43;;;;;;;12.70;5.40;;;3.40;99.90;;;;;;5110127;27;20039;-82
2023/01/16 08:22:08;;;;;;;11.40;5.68;;;3.40;99.90;;;;;;5076637;27;20045;-82
2023/01/16 08:24:34;;;;;;;8.20;5.22;;;3.40;99.90;;;;;;5076978;27;20040;-83
2023/01/16 08:27:00;;;;;;;11.20;5.63;;;4.30;99.90;;;;;;5093040;27;20494;-82
2023/01/16 08:29:25;;;;;;;10.73;6.05;;;4.70;99.90;;;;;;5093893;27;20378;-83
2023/01/16 08:31:51;;;;;;;9.10;5.88;;;3.50;99.90;;;;;;5110252;27;20049;-82
2023/01/16 08:34:17;;;;;;;13.18;6.68;;;3.50;99.90;;;;;;5093719;27;20031;-82
2023/01/16 08:36:43;;;;;;;15.88;5.97;;;3.50;99.90;;;;;;5076359;27;20043;-81
2023/01/16 08:39:12;;;;;;;19.00;6.22;;;4.20;99.90;;;;;;5109491;27;20451;-82
2023/01/16 08:52:43;;;;;;;11.25;6.40;;;3.60;99.90;;;;;;5109143;27;20051;-80
2023/01/16 08:55:09;;;;;;;15.05;5.80;;;3.60;99.90;;;;;;5110245;27;20039;-81
2023/01/16 08:57:35;;;;;;;14.65;6.10;;;4.20;99.90;;;;;;5091805;27;20138;-81
2023/01/16 09:00:01;;;;;;;12.35;6.28;;;3.70;99.90;;;;;;5109302;27;20138;-81
2023/01/16 09:02:28;;;;;;;8.52;5.05;;;3.70;99.90;;;;;;5092765;27;20124;-81
2023/01/16 09:04:54;;;;;;;10.55;5.75;;;3.70;99.90;;;;;;5109176;27;20067;-81
2023/01/16 09:07:21;;;;;;;12.85;6.43;;;5.00;99.90;;;;;;5092482;27;20047;-80
2023/01/16 09:09:47;;;;;;;10.68;5.90;;;5.20;99.90;;;;;;5109228;27;20043;-81
2023/01/16 09:14:59;;;;;;;15.82;5.85;;;3.90;99.90;;;;;;5108604;27;20072;-81
2023/01/16 09:17:26;;;;;;;10.73;4.70;;;3.90;99.90;;;;;;5092491;27;20039;-81
2023/01/16 09:19:52;;;;;;;7.35;4.50;;;3.90;99.90;;;;;;5075603;27;20486;-81
2023/01/16 09:22:19;;;;;;;11.85;4.47;;;4.30;99.90;;;;;;5108873;27;20046;-81
2023/01/16 09:24:45;;;;;;;11.10;4.55;;;4.00;99.90;;;;;;5109490;27;20035;-82
2023/01/16 09:27:14;;;;;;;10.70;4.57;;;4.80;99.90;;;;;;5108735;27;20092;-82
2023/01/16 09:29:41;;;;;;;9.57;4.07;;;4.00;99.90;;;;;;5076584;27;20479;-82
2023/01/16 09:32:08;;;;;;;13.75;5.00;;;4.10;99.90;;;;;;5074904;27;20046;-81
2023/01/16 09:34:35;;;;;;;14.48;4.28;;;4.90;99.90;;;;;;5108787;27;20078;-83
2023/01/16 09:37:01;;;;;;;9.45;5.10;;;4.20;99.90;;;;;;5108879;27;20463;-83
2023/01/16 09:39:28;;;;;;;9.23;4.15;;;4.20;99.90;;;;;;5108667;27;20047;-83
2023/01/16 09:45:09;;;;;;;7.25;3.75;;;4.20;99.90;;;;;;5108158;27;20089;-82
2023/01/16 09:47:37;;;;;;;7.30;3.42;;;4.20;99.90;;;;;;5091867;27;20074;-83
2023/01/16 09:50:11;;;;;;;6.13;3.58;;;4.50;99.90;;;;;;5091817;27;20040;-83
2023/01/16 09:58:39;;;;;;;10.18;3.53;;;4.70;99.90;;;;;;5108264;27;20157;-83
2023/01/16 10:01:10;;;;;;;6.47;2.97;;;5.30;99.90;;;;;;5087260;28;20100;-86
2023/01/16 10:03:42;;;;;;;7.30;3.70;;;4.40;99.90;;;;;;5105470;28;20048;-86
2023/01/16 10:06:26;;;;;;;9.25;3.40;;;4.50;99.90;;;;;;5087861;28;20050;-86
2023/01/16 10:09:05;;;;;;;6.28;2.88;;;4.40;99.90;;;;;;5088427;28;20538;-87
2023/01/16 10:11:40;;;;;;;8.82;3.65;;;5.70;99.90;;;;;;5105233;28;20482;-87
2023/01/16 10:14:49;;;;;;;8.27;2.92;;;4.40;99.90;;;;;;5104536;28;20047;-86
2023/01/16 10:17:21;;;;;;;7.22;3.05;;;4.40;99.90;;;;;;5070192;28;20486;-86
2023/01/16 10:20:13;;;;;;;7.05;2.53;;;4.50;99.90;;;;;;5087375;28;20069;-85
2023/01/16 10:23:02;;;;;;;5.13;2.25;;;4.50;99.90;;;;;;5087681;28;20090;-85
2023/01/16 10:25:43;;;;;;;5.32;2.83;;;4.50;99.90;;;;;;5087803;28;20044;-90
2023/01/16 10:28:19;;;;;;;4.03;2.08;;;4.50;99.90;;;;;;5105246;28;20129;-86
2023/01/16 10:30:54;;;;;;;5.32;2.47;;;4.50;99.90;;;;;;5087679;28;20040;-84
2023/01/16 10:33:32;;;;;;;5.00;2.03;;;4.50;99.90;;;;;;5105051;28;20482;-84
2023/01/16 10:36:01;;;;;;;7.05;2.33;;;4.50;99.90;;;;;;5104885;28;20036;-85
2023/01/16 10:38:34;;;;;;;5.60;2.85;;;5.30;99.90;;;;;;5088905;28;20409;-84
2023/01/16 10:41:00;;;;;;;8.80;2.75;;;4.60;99.90;;;;;;5088696;28;20087;-85
2023/01/16 10:49:26;;;;;;;5.22;1.92;;;5.70;99.90;;;;;;5069055;28;20051;-85
2023/01/16 10:51:55;;;;;;;7.60;2.10;;;4.60;99.90;;;;;;5057098;28;20448;-85
2023/01/16 10:54:21;;;;;;;4.97;2.05;;;4.60;99.90;;;;;;5105033;28;20040;-85
2023/01/16 10:56:47;;;;;;;6.88;2.03;;;4.60;99.90;;;;;;5070783;28;20069;-85
2023/01/16 10:59:14;;;;;;;6.55;2.03;;;4.60;99.90;;;;;;5087692;28;20490;-86
2023/01/16 11:01:42;;;;;;;3.10;1.58;;;4.60;99.90;;;;;;5083707;28;20509;-86
2023/01/16 11:04:12;;;;;;;4.05;1.83;;;5.00;99.90;;;;;;5085098;28;20479;-87
2023/01/16 11:06:41;;;;;;;11.15;4.97;;;4.60;99.90;;;;;;5084582;28;20075;-88
2023/01/16 11:09:16;;;;;;;3.80;1.52;;;4.50;99.90;;;;;;5067862;28;20126;-88
2023/01/16 11:20:38;;;;;;;4.88;1.15;;;4.30;99.90;;;;;;5085295;28;20044;-89
2023/01/16 11:23:18;;;;;;;1.95;0.80;;;5.30;99.90;;;;;;5084388;28;20055;-90
2023/01/16 11:25:45;;;;;;;2.00;0.60;;;4.20;99.90;;;;;;5085227;28;20112;-89
2023/01/16 11:28:23;;;;;;;2.42;0.70;;;4.10;99.90;;;;;;5068220;28;20395;-89
2023/01/16 11:30:53;;;;;;;1.90;0.70;;;4.10;99.90;;;;;;5067391;28;20044;-89
2023/01/16 11:33:22;;;;;;;2.13;0.90;;;4.00;99.90;;;;;;5071324;28;20055;-88
2023/01/16 11:35:55;;;;;;;2.15;0.80;;;4.00;99.90;;;;;;5070577;28;20047;-88
2023/01/16 11:38:22;;;;;;;1.17;0.67;;;4.00;99.90;;;;;;5072066;28;20104;-86
2023/01/16 11:40:50;;;;;;;2.42;0.60;;;4.70;99.90;;;;;;5087118;28;20127;-88
2023/01/16 11:46:32;;;;;;;2.05;0.50;;;4.00;99.90;;;;;;5074007;28;20040;-87
2023/01/16 11:49:12;;;;;;;1.80;0.55;;;3.90;99.90;;;;;;5069912;28;20865;-87
2023/01/16 11:51:38;;;;;;;3.47;0.93;;;3.90;99.90;;;;;;5071499;28;20146;-87
2023/01/16 11:54:13;;;;;;;1.38;0.80;;;3.90;99.90;;;;;;5071609;28;20044;-85
2023/01/16 11:56:39;;;;;;;3.45;0.80;;;3.90;99.90;;;;;;5072192;28;20132;-85
2023/01/16 11:59:11;;;;;;;2.33;0.80;;;5.20;99.90;;;;;;5073545;28;20066;-89
2023/01/16 12:04:37;;;;;;;3.40;0.75;;;4.00;99.90;;;;;;5108452;28;20505;-88
2023/01/16 12:07:11;;;;;;;1.65;0.60;;;4.00;99.90;;;;;;5073693;28;20036;-86
2023/01/16 12:10:24;;;;;;;2.15;0.82;;;4.00;99.90;;;;;;5107414;28;20059;-87
2023/01/16 12:16:31;;;;;;;0.85;0.63;;;3.60;99.90;;;;;;5107402;28;20040;-86
2023/01/16 12:19:14;;;;;;;3.67;0.75;;;4.00;99.90;;;;;;5028061;28;20059;-86
2023/01/16 12:21:49;;;;;;;3.60;0.90;;;4.00;99.90;;;;;;5090991;28;20612;-86
2023/01/16 12:24:28;;;;;;;1.20;0.57;;;4.00;99.90;;;;;;5106631;28;20108;-86
2023/01/16 12:27:32;;;;;;;2.85;1.10;;;4.00;99.90;;;;;;5106178;28;20134;-85
2023/01/16 12:30:16;;;;;;;1.95;0.60;;;4.00;99.90;;;;;;5089986;28;20086;-86
2023/01/16 12:33:12;;;;;;;3.03;0.95;;;4.00;99.90;;;;;;5089293;28;20042;-87
2023/01/16 12:36:03;;;;;;;2.53;0.60;;;4.00;99.90;;;;;;5105734;28;20044;-87
2023/01/16 12:38:37;;;;;;;1.55;0.70;;;4.10;99.90;;;;;;5089782;28;20055;-86
2023/01/16 12:44:37;;;;;;;2.58;0.80;;;4.40;99.90;;;;;;5106082;28;20043;-87
2023/01/16 12:47:41;;;;;;;1.15;0.60;;;4.10;99.90;;;;;;5090444;28;20047;-86
2023/01/16 12:50:16;;;;;;;1.02;0.65;;;4.10;99.90;;;;;;5067887;28;20135;-85
2023/01/16 12:52:48;;;;;;;2.28;1.15;;;4.10;99.90;;;;;;5105959;28;20132;-83
2023/01/16 12:55:23;;;;;;;7.93;3.50;;;4.10;99.90;;;;;;5106826;28;20031;-83
2023/01/16 12:58:04;;;;;;;1.63;0.88;;;4.20;99.90;;;;;;5105250;28;20517;-84
2023/01/16 13:00:56;;;;;;;3.88;0.93;;;4.20;99.90;;;;;;5106436;28;20410;-83
2023/01/16 13:03:34;;;;;;;1.17;0.82;;;4.20;99.90;;;;;;5094762;28;20051;-86
2023/01/16 13:06:01;;;;;;;2.10;0.90;;;4.20;99.90;;;;;;5089178;28;20450;-83
2023/01/16 13:08:39;;;;;;;2.40;1.00;;;4.40;99.90;;;;;;5107331;28;20398;-84
2023/01/16 13:14:08;;;;;;;1.50;1.02;;;5.30;99.90;;;;;;5106102;28;20050;-82
2023/01/16 13:16:40;;;;;;;2.35;1.05;;;4.80;99.90;;;;;;5107241;28;20052;-81
2023/01/16 13:19:20;;;;;;;1.67;1.08;;;4.40;99.90;;;;;;5107979;28;20050;-82
2023/01/16 13:22:06;;;;;;;4.10;1.33;;;4.40;99.90;;;;;;5096576;28;20039;-82
2023/01/16 13:24:43;;;;;;;3.80;1.90;;;4.40;99.90;;;;;;5106622;28;20406;-82
2023/01/16 13:27:23;;;;;;;3.28;1.38;;;4.40;99.90;;;;;;5105693;28;20529;-82
2023/01/16 13:29:55;;;;;;;4.38;1.55;;;4.40;99.90;;;;;;5106496;28;20044;-82
2023/01/16 13:32:54;;;;;;;1.70;0.77;;;4.40;99.90;;;;;;5087937;28;20040;-83
2023/01/16 13:35:34;;;;;;;5.05;1.30;;;4.40;99.90;;;;;;5075750;28;20281;-83
2023/01/16 13:38:24;;;;;;;3.22;1.60;;;4.40;99.90;;;;;;5105823;28;20607;-83
2023/01/16 13:41:17;;;;;;;2.70;1.42;;;4.40;99.90;;;;;;5087736;28;20054;-82
2023/01/16 13:46:46;;;;;;;5.80;1.48;;;5.80;99.90;;;;;;5105789;28;20055;-86
2023/01/16 13:49:24;;;;;;;4.15;2.45;;;4.50;99.90;;;;;;5088186;28;20044;-83
2023/01/16 13:51:52;;;;;;;2.10;1.40;;;4.50;99.90;;;;;;5089450;28;20040;-83
2023/01/16 13:54:23;;;;;;;2.92;1.40;;;4.50;99.90;;;;;;5104216;28;20047;-83
2023/01/16 13:57:07;;;;;;;2.92;2.10;;;4.60;99.90;;;;;;5105759;28;20051;-85
2023/01/16 13:59:53;;;;;;;2.75;1.70;;;4.50;99.90;;;;;;5105847;28;20457;-85
2023/01/16 14:02:33;;;;;;;2.63;1.20;;;4.60;99.90;;;;;;5087813;28;20051;-84
2023/01/16 14:05:14;;;;;;;2.63;1.27;;;4.60;99.90;;;;;;5105550;28;20071;-84
2023/01/16 14:11:02;;;;;;;2.47;1.23;;;4.60;99.90;;;;;;5104328;28;20090;-84
2023/01/16 14:13:37;;;;;;;4.53;1.33;;;4.60;99.90;;;;;;5089076;28;20051;-83
2023/01/16 14:16:31;;;;;;;2.47;1.25;;;4.60;99.90;;;;;;5088470;28;20051;-84
2023/01/16 14:18:56;;;;;;;12.20;5.55;;;4.70;99.90;;;;;;5087412;28;20047;-83
2023/01/16 14:24:41;;;;;;;4.55;1.23;;;4.60;99.90;;;;;;5106052;28;20130;-82
2023/01/16 14:27:12;;;;;;;3.67;1.70;;;4.70;99.90;;;;;;5104305;28;20044;-82
2023/01/16 14:29:52;;;;;;;2.17;1.60;;;4.70;99.90;;;;;;5105558;28;20066;-83
2023/01/16 14:32:20;;;;;;;3.40;1.60;;;4.70;99.90;;;;;;5104291;28;20545;-85
2023/01/16 14:35:00;;;;;;;4.55;1.65;;;5.70;99.90;;;;;;5089508;28;20095;-82